• Join FlightAware (Why Join?)
  • Login
  • US Flag 
11:52PM EDT


 

Airport Tracker/Info


-or-


 

Live Flight TrackerFlight Track Log ✈ UAL4234 ✈ 15-Jul-2014 ✈ KDEN - CYXE

Flight Track Log - Related Links

Times and Time Zones

All times are in EDT time to prevent confusion due to time zone crossing. See the UAL4234 flight status page for this flight to view local times or setup timezone preferences in your user account.

Time Position Orientation Groundspeed Altitude Reporting Facility
EDT Latitude Longitude Course Direction KTS MPH feet Rate Location/Type
01:54PM 39.9333 -104.6833 270° West 185 213 6,900  Level Denver TRACON
01:55PM 40.0167 -104.6667 North 262 302 8,700 1,740 Climbing Denver TRACON
01:56PM 40.1019 -104.6708 358° North 276 318 11,100 1,440 Climbing Denver Center
01:57PM 40.3183 -104.8087 349° North  Level FlightAware Approximate
01:57PM 40.1858 -104.6931 349° North 308 354 12,100  Level Denver Center
01:58PM 40.4353 -104.8451 346° North  Level FlightAware Approximate
01:58PM 40.2833 -104.7186 349° North 331 381 13,600  Level Denver Center
01:59PM 40.5500 -104.8860 270° West  Level FlightAware Approximate
01:59PM 40.3769 -104.7439 348° North 338 389 15,100  Level Denver Center
02:00PM 40.4775 -104.7708 348° North 342 394 16,700 1,260 Climbing Denver Center
02:01PM 40.5708 -104.7961 348° North 340 391 17,800 1,260 Climbing Denver Center
02:02PM 40.6717 -104.8236 348° North 343 395 19,400 1,440 Climbing Denver Center
02:04PM 40.8222 -104.8672 348° North 345 397 21,800 1,440 Climbing Salt Lake Center
02:05PM 40.9236 -104.9175 339° North 345 397 23,500 1,500 Climbing Salt Lake Center
02:06PM 41.0117 -104.9639 338° Northwest 346 398 24,900 1,440 Climbing Salt Lake Center
02:07PM 41.1119 -105.0117 340° North 349 402 26,500 1,440 Climbing Salt Lake Center
02:08PM 41.1986 -105.0550 339° North 349 402 27,900 1,440 Climbing Salt Lake Center
02:10PM 41.3303 -105.1200 340° North 347 399 30,100 1,380 Climbing Denver Center
02:11PM 41.4183 -105.1617 340° North 336 387 31,400 1,140 Climbing Denver Center
02:12PM 41.5050 -105.2053 339° North 335 386 32,500 960 Climbing Denver Center
02:13PM 41.5981 -105.2447 342° North 345 397 33,400 900 Climbing Denver Center
02:14PM 41.6947 -105.2597 353° North 349 402 34,400 1,020 Climbing Denver Center
02:15PM 41.8125 -105.2817 352° North 352 405 35,600 720 Climbing Denver Center
02:16PM 41.9086 -105.2986 353° North 351 404 36,000 180 Climbing Denver Center
02:17PM 42.0122 -105.3203 351° North 370 426 36,000  Level Denver Center
02:18PM 42.1203 -105.3394 353° North 389 448 36,000  Level Denver Center
02:19PM 42.2333 -105.3614 352° North 406 467 36,000  Level Denver Center
02:20PM 42.3447 -105.3825 352° North 406 467 36,000  Level Denver Center
02:21PM 42.4772 -105.4092 352° North 405 466 36,000  Level Denver Center
02:22PM 42.5917 -105.4303 352° North 405 466 36,000  Level Denver Center
02:23PM 42.6922 -105.4483 352° North 404 465 36,000  Level Denver Center
02:24PM 42.8025 -105.4714 351° North 403 464 36,000  Level Denver Center
02:25PM 42.9339 -105.4961 352° North 403 464 36,000  Level Denver Center
02:26PM 43.0433 -105.5181 352° North 399 459 36,000  Level Denver Center
02:27PM 43.1547 -105.5389 352° North 399 459 36,000  Level Denver Center
02:28PM 43.2653 -105.5606 352° North 400 460 36,000  Level Denver Center
02:29PM 43.3753 -105.5833 351° North 400 460 36,000  Level Denver Center
02:30PM 43.5092 -105.6078 352° North 402 463 36,000  Level Denver Center
02:31PM 43.6217 -105.6300 352° North 406 467 36,000  Level Denver Center
02:32PM 43.7331 -105.6531 351° North 406 467 36,000  Level Denver Center
02:33PM 43.8456 -105.6775 351° North 406 467 36,000  Level Denver Center
02:35PM 43.9581 -105.6997 352° North 406 467 36,000  Level Denver Center
02:36PM 44.0947 -105.7275 352° North 409 471 36,000  Level Denver Center
02:37PM 44.2078 -105.7497 352° North 410 472 36,000  Level Denver Center
02:38PM 44.3211 -105.7714 352° North 410 472 36,000  Level Denver Center
02:38PM 44.3936 -105.7861 352° North 412 474 36,000  Level Salt Lake Center
02:39PM 44.5219 -105.8106 352° North 413 475 36,000  Level Salt Lake Center
02:40PM 44.6294 -105.8342 351° North 413 475 36,000  Level Salt Lake Center
02:41PM 44.7531 -105.8589 352° North 413 475 36,000  Level Salt Lake Center
02:42PM 44.8675 -105.8828 352° North 413 475 36,000  Level Salt Lake Center
02:43PM 44.9850 -105.9083 351° North 423 487 36,000  Level Salt Lake Center
02:44PM 45.1047 -105.9333 352° North 430 495 36,000  Level Salt Lake Center
02:46PM 45.2494 -105.9644 351° North 436 502 36,000  Level Salt Lake Center
02:47PM 45.3631 -105.9889 351° North 423 487 36,000  Level Salt Lake Center
02:48PM 45.4758 -106.0117 352° North 413 475 36,000  Level Salt Lake Center
02:49PM 45.5886 -106.0353 352° North 413 475 36,000  Level Salt Lake Center
02:50PM 45.7042 -106.0600 352° North 418 481 36,000  Level Salt Lake Center
02:51PM 45.8408 -106.0886 352° North 419 482 36,000  Level Salt Lake Center
02:52PM 45.9553 -106.1103 353° North 418 481 36,000  Level Salt Lake Center
02:53PM 46.0717 -106.1369 351° North 418 481 36,000  Level Salt Lake Center
02:54PM 46.1886 -106.1633 351° North 422 486 36,000  Level Salt Lake Center
02:55PM 46.3053 -106.1892 351° North 422 486 36,000  Level Salt Lake Center
02:56PM 46.4464 -106.2211 351° North 424 488 36,000  Level Salt Lake Center
02:57PM 46.5639 -106.2494 351° North 428 493 36,000  Level Salt Lake Center
02:58PM 46.6814 -106.2756 351° North 428 493 36,000  Level Salt Lake Center
02:59PM 46.7972 -106.3000 352° North 428 493 36,000  Level Salt Lake Center
03:00PM 46.9139 -106.3264 351° North 427 491 36,000  Level Salt Lake Center
03:01PM 47.0319 -106.3536 351° North 428 493 36,000  Level Salt Lake Center
03:02PM 47.1742 -106.3869 351° North 428 493 36,000  Level Salt Lake Center
03:03PM 47.2908 -106.4117 352° North 428 493 36,000  Level Salt Lake Center
03:04PM 47.4086 -106.4392 351° North 428 493 36,000  Level Salt Lake Center
03:05PM 47.5358 -106.4678 351° North 428 493 36,000  Level Salt Lake Center
03:06PM 47.6511 -106.4942 351° North 425 489 36,000 -60 Level Salt Lake Center
03:07PM 47.7678 -106.5214 351° North 425 489 35,900 -60 Descending Salt Lake Center
03:08PM 47.8814 -106.5483 351° North 420 483 35,900  Level Salt Lake Center
03:09PM 47.9500 -106.5833 341° North 420 483 36,000 60 Climbing Winnipeg Center
03:10PM 48.0500 -106.6167 347° North 410 472 36,000  Level Winnipeg Center
03:11PM 48.1667 -106.6500 349° North 420 483 36,000  Level Winnipeg Center
03:12PM 48.2667 -106.6833 347° North 400 460 36,000  Level Winnipeg Center
03:13PM 48.3833 -106.7500 339° North 410 472 36,000  Level Winnipeg Center
03:13PM 48.4606 -106.7481 North 410 472 36,000  Level Salt Lake Center
03:14PM 48.5703 -106.8011 342° North 410 472 36,000  Level Salt Lake Center
03:16PM 48.6764 -106.8550 341° North 410 472 36,000  Level Salt Lake Center
03:17PM 48.7850 -106.9081 342° North 410 472 36,000  Level Salt Lake Center
03:18PM 48.8928 -106.9644 341° North 409 471 36,000 -540 Level Salt Lake Center
03:19PM 49.0222 -107.0281 342° North 409 471 34,900 -1,020 Descending Salt Lake Center
03:20PM 49.1311 -107.0847 341° North 409 471 33,900 -1,020 Descending Salt Lake Center
03:21PM 49.2667 -107.1833 335° Northwest 430 495 32,600 -840 Descending Winnipeg Center
03:22PM 49.3833 -107.2333 344° North 430 495 32,000 -300 Descending Winnipeg Center
03:23PM 49.4667 -107.3167 327° Northwest 420 483 32,000  Level Winnipeg Center
03:24PM 49.6000 -107.3667 346° North 420 483 32,000  Level Winnipeg Center
03:25PM 49.7167 -107.4167 345° North 430 495 32,000  Level Winnipeg Center
03:26PM 49.8333 -107.5000 335° Northwest 440 506 32,000  Level Winnipeg Center
03:27PM 49.9333 -107.5500 342° North 440 506 32,000  Level Winnipeg Center
03:28PM 50.0500 -107.6000 345° North 440 506 32,000  Level Winnipeg Center
03:29PM 50.1833 -107.6833 338° Northwest 440 506 32,000  Level Winnipeg Center
03:30PM 50.3000 -107.7333 345° North 440 506 32,000  Level Winnipeg Center
03:31PM 50.4167 -107.7000 10° North 450 518 32,000  Level Winnipeg Center
03:32PM 50.5333 -107.6833 North 450 518 32,000  Level Winnipeg Center
03:33PM 50.6500 -107.6833 360° North 450 518 32,000  Level Winnipeg Center
03:34PM 50.7833 -107.6667 North 450 518 32,000  Level Winnipeg Center
03:35PM 50.9000 -107.6667 360° North 450 518 32,000  Level Winnipeg Center
03:36PM 51.0500 -107.6333 North 440 506 32,000 -180 Level Winnipeg Center
03:37PM 51.1667 -107.6333 360° North 440 506 31,700 -900 Descending Winnipeg Center
03:38PM 51.2833 -107.6167 North 440 506 30,200 -1,500 Descending Winnipeg Center
03:39PM 51.4000 -107.6167 360° North 440 506 28,800 -1,800 Descending Winnipeg Center
03:40PM 51.5167 -107.5833 10° North 440 506 26,600 -2,400 Descending Winnipeg Center
03:41PM 51.6667 -107.5667 North 440 506 24,100 -2,520 Descending Winnipeg Center
03:42PM 51.7667 -107.5667 360° North 430 495 21,600 -2,520 Descending Winnipeg Center
03:43PM 51.8833 -107.5333 10° North 390 449 19,100 -2,400 Descending Winnipeg Center
03:44PM 51.9833 -107.5333 360° North 370 426 16,900 -2,340 Descending Winnipeg Center
03:45PM 52.0833 -107.5333 360° North 350 403 14,500 -2,520 Descending Winnipeg Center
03:46PM 52.1500 -107.4333 43° Northeast 330 380 11,900 -2,160 Descending Winnipeg Center
03:47PM 52.1167 -107.3000 112° Southeast 330 380 10,200 -1,620 Descending Winnipeg Center
03:48PM 52.1000 -107.1500 100° East 290 334 8,700 -1,680 Descending Winnipeg Center
03:49PM 52.0833 -107.0333 103° East 280 322 6,900 -1,860 Descending Winnipeg Center
03:50PM 52.0500 -106.9000 112° Southeast 270 311 5,000 -1,440 Descending Winnipeg Center
03:51PM 52.0500 -106.8167 90° East 250 288 4,100 -540 Descending Winnipeg Center
03:52PM 52.0333 -106.7000 103° East 220 253 4,000 -60 Descending Winnipeg Center
03:53PM 52.0500 -106.6167 72° East 220 253 4,000  Level Winnipeg Center
03:54PM 52.0333 -106.5167 105° East 210 242 4,000  Level Winnipeg Center
03:55PM 52.0833 -106.4667 32° Northeast 220 253 4,000  Level Winnipeg Center
03:56PM 52.1333 -106.5000 338° Northwest 200 230 4,000 -300 Level Winnipeg Center
03:57PM 52.1500 -106.5833 288° West 160 184 3,400 -780 Descending Winnipeg Center
03:58PM 52.1500 -106.6500 270° West 140 161 2,500 -840 Descending Winnipeg Center
03:59PM 52.1500 -106.7000 270° West 140 161 1,800 -720 Descending Winnipeg Center